createdAt,value
2023-01-17T00:00:51.634Z,98658.25
2023-01-17T00:03:21.139Z,98642.63
2023-01-17T00:06:06.531Z,98646.63
2023-01-17T00:09:03.710Z,98641.63
2023-01-17T00:11:31.736Z,98642.22
2023-01-17T00:14:01.289Z,98642.22
2023-01-17T00:16:29.400Z,98647.84
2023-01-17T00:19:15.291Z,98635.81
2023-01-17T00:22:00.495Z,98643.84
2023-01-17T00:38:02.475Z,98627.22
2023-01-17T00:40:29.415Z,98631.44
2023-01-17T00:43:14.780Z,98623.00
2023-01-17T00:46:01.453Z,98636.22
2023-01-17T00:48:46.856Z,98627.22
2023-01-17T00:54:24.866Z,98628.00
2023-01-17T00:57:10.765Z,98630.22
2023-01-17T00:59:56.323Z,98641.03
2023-01-17T01:02:41.880Z,98632.59
2023-01-17T01:05:27.263Z,98635.19
2023-01-17T01:08:12.642Z,98632.59
2023-01-17T01:10:59.444Z,98641.00
2023-01-17T01:13:45.603Z,98635.81
2023-01-17T01:16:31.562Z,98632.19
2023-01-17T01:19:17.241Z,98636.63
2023-01-17T01:22:02.831Z,98617.78
2023-01-17T01:24:48.329Z,98626.59
2023-01-17T01:27:35.266Z,98634.78
2023-01-17T01:30:20.986Z,98636.19
2023-01-17T01:33:06.354Z,98627.19
2023-01-17T01:35:41.993Z,98617.78
2023-01-17T01:38:10.129Z,98613.78
2023-01-17T01:40:42.923Z,98623.38
2023-01-17T01:43:13.695Z,98628.78
2023-01-17T01:45:41.915Z,98631.56
2023-01-17T01:48:19.273Z,98609.75
2023-01-17T01:50:49.879Z,98613.34
2023-01-17T01:53:19.033Z,98618.53
2023-01-17T01:55:49.492Z,98614.56
2023-01-17T01:58:20.696Z,98612.97
2023-01-17T02:00:49.059Z,98627.78
2023-01-17T02:03:18.952Z,98627.78
2023-01-17T02:05:47.296Z,98616.16
2023-01-17T02:08:16.704Z,98616.97
2023-01-17T02:10:45.280Z,98616.16
2023-01-17T02:13:13.994Z,98625.56
2023-01-17T02:15:48.341Z,98616.53
2023-01-17T02:18:20.892Z,98621.94
2023-01-17T02:20:58.840Z,98616.53
2023-01-17T02:23:40.332Z,98610.56
2023-01-17T02:26:22.967Z,98603.50
2023-01-17T02:29:01.944Z,98614.34
2023-01-17T02:31:33.744Z,98603.34
2023-01-17T02:34:04.941Z,98606.09
2023-01-17T02:36:37.069Z,98596.69
2023-01-17T02:39:09.363Z,98600.72
2023-01-17T02:41:38.769Z,98593.50
2023-01-17T02:44:09.370Z,98590.88
2023-01-17T02:46:45.965Z,98595.47
2023-01-17T02:49:14.213Z,98588.66
2023-01-17T02:51:56.882Z,98592.28
2023-01-17T02:54:33.988Z,98588.47
2023-01-17T02:57:09.296Z,98594.47
2023-01-17T02:59:44.781Z,98588.25
2023-01-17T03:02:19.335Z,98588.84
2023-01-17T03:04:49.594Z,98584.84
2023-01-17T03:07:18.855Z,98575.28
2023-01-17T03:09:48.409Z,98589.47
2023-01-17T03:12:16.715Z,98571.41
2023-01-17T03:14:44.801Z,98576.00
2023-01-17T03:17:14.308Z,98578.59
2023-01-17T03:19:42.319Z,98580.00
2023-01-17T03:22:10.274Z,98581.22
2023-01-17T03:24:38.287Z,98578.41
2023-01-17T03:27:06.721Z,98577.63
2023-01-17T03:29:34.771Z,98578.81
2023-01-17T03:32:02.848Z,98575.22
2023-01-17T03:34:32.275Z,98568.22
2023-01-17T03:37:00.239Z,98566.81
2023-01-17T03:39:28.146Z,98575.03
2023-01-17T03:41:56.513Z,98554.78
2023-01-17T03:44:24.473Z,98566.59
2023-01-17T03:46:52.587Z,98569.22
2023-01-17T03:49:20.944Z,98567.03
2023-01-17T03:51:50.664Z,98573.44
2023-01-17T03:54:18.768Z,98568.03
2023-01-17T03:56:46.752Z,98567.00
2023-01-17T03:59:15.174Z,98573.00
2023-01-17T04:01:43.359Z,98567.44
2023-01-17T04:04:11.322Z,98572.03
2023-01-17T04:06:39.301Z,98573.19
2023-01-17T04:09:08.735Z,98575.03
2023-01-17T04:11:36.703Z,98570.22
2023-01-17T04:14:04.785Z,98572.84
2023-01-17T04:16:33.257Z,98583.06
2023-01-17T04:19:01.394Z,98583.47
2023-01-17T04:21:29.527Z,98588.44
2023-01-17T04:23:57.622Z,98591.47
2023-01-17T04:26:26.885Z,98588.66
2023-01-17T04:28:54.865Z,98595.06
2023-01-17T04:31:22.911Z,98602.88
2023-01-17T04:33:50.939Z,98605.03
2023-01-17T04:36:19.018Z,98591.19
2023-01-17T04:38:47.070Z,98589.97
2023-01-17T04:41:15.052Z,98599.59
2023-01-17T04:43:44.685Z,98602.97
2023-01-17T04:46:13.008Z,98596.41
2023-01-17T04:48:41.101Z,98597.00
2023-01-17T04:51:09.423Z,98603.59
2023-01-17T04:53:37.528Z,98594.97
2023-01-17T04:56:05.865Z,98597.38
2023-01-17T04:58:34.342Z,98605.19
2023-01-17T05:01:04.447Z,98605.41
2023-01-17T05:03:32.441Z,98598.16
2023-01-17T05:06:00.493Z,98592.53
2023-01-17T05:08:28.837Z,98595.31
2023-01-17T05:10:56.877Z,98590.91
2023-01-17T05:13:25.013Z,98593.34
2023-01-17T05:15:53.429Z,98597.31
2023-01-17T05:18:22.721Z,98603.13
2023-01-17T05:20:50.774Z,98597.13
2023-01-17T05:23:19.172Z,98605.34
2023-01-17T05:25:47.199Z,98599.94
2023-01-17T05:28:15.587Z,98596.69
2023-01-17T05:30:43.760Z,98593.69
2023-01-17T05:33:11.962Z,98604.16
2023-01-17T05:35:41.370Z,98605.97
2023-01-17T05:38:09.447Z,98599.53
2023-01-17T05:40:37.501Z,98601.72
2023-01-17T05:43:05.674Z,98599.50
2023-01-17T05:45:34.943Z,98598.28
2023-01-17T05:48:03.037Z,98602.84
2023-01-17T05:50:32.183Z,98607.06
2023-01-17T05:53:02.727Z,98617.91
2023-01-17T05:55:31.645Z,98602.03
2023-01-17T05:57:59.635Z,98605.66
2023-01-17T06:00:27.983Z,98602.28
2023-01-17T06:02:56.377Z,98605.09
2023-01-17T06:05:24.990Z,98601.66
2023-01-17T06:07:53.302Z,98599.19
2023-01-17T06:10:23.582Z,98603.00
2023-01-17T06:12:51.634Z,98590.38
2023-01-17T06:15:20.042Z,98600.63
2023-01-17T06:17:48.094Z,98604.59
2023-01-17T06:20:16.061Z,98603.38
2023-01-17T06:22:44.545Z,98603.38
2023-01-17T06:25:12.741Z,98609.19
2023-01-17T06:27:42.555Z,98609.19
2023-01-17T06:30:11.292Z,98612.81
2023-01-17T06:32:39.422Z,98610.97
2023-01-17T06:35:07.782Z,98609.53
2023-01-17T06:37:35.932Z,98605.13
2023-01-17T06:40:04.118Z,98606.38
2023-01-17T06:42:32.589Z,98603.28
2023-01-17T06:45:01.966Z,98605.06
2023-01-17T06:47:29.957Z,98607.13
2023-01-17T06:49:58.051Z,98597.28
2023-01-17T06:52:25.961Z,98615.47
2023-01-17T06:54:54.150Z,98606.34
2023-01-17T06:57:22.104Z,98599.75
2023-01-17T06:59:50.258Z,98604.97
2023-01-17T07:02:19.837Z,98608.72
2023-01-17T07:04:47.868Z,98613.94
2023-01-17T07:07:15.927Z,98622.09
2023-01-17T07:09:44.152Z,98619.06
2023-01-17T07:12:12.186Z,98621.91
2023-01-17T07:14:40.104Z,98614.84
2023-01-17T07:17:09.537Z,98610.94
2023-01-17T07:19:38.929Z,98610.38
2023-01-17T07:22:06.983Z,98611.94
2023-01-17T07:24:36.663Z,98619.84
2023-01-17T07:27:04.933Z,98619.00
2023-01-17T07:29:32.967Z,98619.44
2023-01-17T07:32:01.000Z,98619.75
2023-01-17T07:34:29.003Z,98612.28
2023-01-17T07:36:58.678Z,98621.03
2023-01-17T07:39:26.632Z,98615.28
2023-01-17T07:41:54.761Z,98615.28
2023-01-17T07:44:22.824Z,98605.63
2023-01-17T07:46:50.815Z,98611.22
2023-01-17T07:49:18.954Z,98609.41
2023-01-17T07:51:48.363Z,98620.38
2023-01-17T07:54:17.878Z,98615.38
2023-01-17T07:56:47.343Z,98624.88
2023-01-17T07:59:15.479Z,98616.84
2023-01-17T08:01:43.619Z,98617.97
2023-01-17T08:04:12.135Z,98617.13
2023-01-17T08:06:40.798Z,98616.13
2023-01-17T08:09:08.901Z,98629.56
2023-01-17T08:11:38.449Z,98634.56
2023-01-17T08:14:06.537Z,98624.56
2023-01-17T08:16:34.664Z,98636.38
2023-01-17T08:19:02.737Z,98628.69
2023-01-17T08:21:30.704Z,98643.72
2023-01-17T08:23:58.767Z,98622.38
2023-01-17T08:26:26.702Z,98626.88
2023-01-17T08:29:00.707Z,98632.97
2023-01-17T08:31:29.008Z,98613.72
2023-01-17T08:33:57.721Z,98621.72
2023-01-17T08:36:27.933Z,98627.91
2023-01-17T08:38:56.277Z,98621.00
2023-01-17T08:41:24.999Z,98630.66
2023-01-17T08:43:53.341Z,98618.59
2023-01-17T08:46:23.119Z,98626.44
2023-01-17T08:48:54.272Z,98612.38
2023-01-17T08:51:22.355Z,98627.31
2023-01-17T08:53:50.329Z,98616.78
2023-01-17T08:56:18.444Z,98616.69
2023-01-17T08:58:46.560Z,98626.91
2023-01-17T09:01:14.948Z,98618.28
2023-01-17T09:03:45.928Z,98613.28
2023-01-17T09:06:14.693Z,98611.22
2023-01-17T09:08:47.152Z,98619.56
2023-01-17T09:11:18.858Z,98615.72
2023-01-17T09:13:46.950Z,98620.88
2023-01-17T09:16:15.110Z,98612.34
2023-01-17T09:18:44.612Z,98611.91
2023-01-17T09:21:13.651Z,98612.59
2023-01-17T09:23:42.006Z,98614.16
2023-01-17T09:26:16.585Z,98610.41
2023-01-17T09:28:44.791Z,98597.03
2023-01-17T09:31:15.369Z,98607.22
2023-01-17T09:33:46.254Z,98616.34
2023-01-17T09:36:14.678Z,98604.75
2023-01-17T09:38:42.833Z,98602.66
2023-01-17T09:41:22.140Z,98612.22
2023-01-17T09:43:52.387Z,98612.00
2023-01-17T09:46:23.203Z,98609.38
2023-01-17T09:48:59.027Z,98611.19
2023-01-17T09:51:27.103Z,98614.97
2023-01-17T09:53:57.711Z,98616.78
2023-01-17T09:56:29.827Z,98613.50
2023-01-17T09:59:07.493Z,98608.03
2023-01-17T10:01:38.221Z,98615.75
2023-01-17T10:04:17.811Z,98612.00
2023-01-17T10:06:50.712Z,98603.59
2023-01-17T10:09:26.708Z,98611.09
2023-01-17T10:12:03.763Z,98619.09
2023-01-17T10:14:37.952Z,98608.19
2023-01-17T10:17:13.686Z,98619.25
2023-01-17T10:19:59.187Z,98585.69
2023-01-17T10:22:46.595Z,98613.53
2023-01-17T10:25:24.740Z,98593.63
2023-01-17T10:27:58.227Z,98605.00
2023-01-17T10:30:28.583Z,98609.22
2023-01-17T10:32:58.451Z,98597.50
2023-01-17T10:35:31.121Z,98602.84
2023-01-17T10:38:00.062Z,98594.00
2023-01-17T10:40:34.016Z,98603.34
2023-01-17T10:43:04.260Z,98603.91
2023-01-17T10:45:35.619Z,98609.28
2023-01-17T10:50:57.869Z,98601.53
2023-01-17T10:53:35.510Z,98595.75
2023-01-17T10:56:03.789Z,98590.50
2023-01-17T10:58:32.991Z,98602.56
2023-01-17T11:01:01.851Z,98604.59
2023-01-17T11:03:31.183Z,98600.97
2023-01-17T11:06:23.428Z,98605.47
2023-01-17T11:08:52.739Z,98603.69
2023-01-17T11:11:22.531Z,98593.66
2023-01-17T11:13:51.741Z,98604.94
2023-01-17T11:16:21.299Z,98601.53
2023-01-17T11:18:50.838Z,98602.13
2023-01-17T11:21:23.437Z,98594.47
2023-01-17T11:23:56.819Z,98603.72
2023-01-17T11:26:25.953Z,98596.53
2023-01-17T11:28:54.720Z,98601.91
2023-01-17T11:31:27.396Z,98601.66
2023-01-17T11:34:09.210Z,98594.50
2023-01-17T11:36:37.465Z,98590.72
2023-01-17T11:39:08.363Z,98590.03
2023-01-17T11:41:37.718Z,98601.09
2023-01-17T11:44:21.909Z,98609.06
2023-01-17T11:46:50.106Z,98599.88
2023-01-17T11:49:24.030Z,98606.78
2023-01-17T11:51:56.186Z,98600.31
2023-01-17T11:54:27.569Z,98599.28
2023-01-17T11:56:58.656Z,98601.47
2023-01-17T11:59:30.158Z,98595.66
2023-01-17T12:02:25.394Z,98608.25
2023-01-17T12:04:58.672Z,98609.19
2023-01-17T12:07:30.986Z,98604.72
2023-01-17T12:10:06.512Z,98604.53
2023-01-17T12:12:57.194Z,98603.72
2023-01-17T12:15:33.428Z,98605.06
2023-01-17T12:18:22.183Z,98614.72
2023-01-17T12:20:54.706Z,98604.25
2023-01-17T12:23:32.747Z,98602.78
2023-01-17T12:26:08.244Z,98600.88
2023-01-17T12:29:00.608Z,98603.94
2023-01-17T12:31:33.648Z,98604.63
2023-01-17T12:34:08.013Z,98598.50
2023-01-17T12:36:40.927Z,98604.19
2023-01-17T12:39:12.021Z,98597.13
2023-01-17T12:41:47.392Z,98598.25
2023-01-17T12:44:17.424Z,98589.63
2023-01-17T12:46:49.576Z,98600.88
2023-01-17T12:49:21.474Z,98608.09
2023-01-17T12:51:54.430Z,98595.88
2023-01-17T12:54:26.820Z,98604.97
2023-01-17T12:57:00.402Z,98603.97
2023-01-17T12:59:32.375Z,98606.81
2023-01-17T13:02:01.177Z,98598.16
2023-01-17T13:04:31.814Z,98588.69
2023-01-17T13:07:05.961Z,98584.13
2023-01-17T13:09:38.374Z,98591.41
2023-01-17T13:12:11.412Z,98602.91
2023-01-17T13:14:39.620Z,98592.25
2023-01-17T13:17:14.419Z,98592.81
2023-01-17T13:19:46.747Z,98596.91
2023-01-17T13:22:18.964Z,98593.59
2023-01-17T13:24:52.997Z,98591.53
2023-01-17T13:27:45.568Z,98596.00
2023-01-17T13:30:22.560Z,98598.16
2023-01-17T13:32:59.138Z,98583.47
2023-01-17T13:35:43.769Z,98564.66
2023-01-17T13:38:22.965Z,98584.25
2023-01-17T13:40:51.917Z,98580.03
2023-01-17T13:43:23.643Z,98577.91
2023-01-17T13:45:55.264Z,98588.09
2023-01-17T13:48:31.334Z,98582.56
2023-01-17T13:51:00.173Z,98575.28
2023-01-17T13:53:58.075Z,98583.56
2023-01-17T13:56:27.889Z,98582.44
2023-01-17T13:58:59.336Z,98576.28
2023-01-17T14:04:15.959Z,98579.91
2023-01-17T14:06:45.622Z,98571.38
2023-01-17T14:09:16.731Z,98565.00
2023-01-17T14:11:52.352Z,98564.88
2023-01-17T14:14:39.070Z,98574.66
2023-01-17T14:17:28.239Z,98570.56
2023-01-17T14:20:01.291Z,98579.56
2023-01-17T14:22:31.251Z,98572.84
2023-01-17T14:25:01.766Z,98580.81
2023-01-17T14:27:32.681Z,98572.75
2023-01-17T14:30:03.991Z,98581.03
2023-01-17T14:32:33.718Z,98573.66
2023-01-17T14:35:03.614Z,98577.16
2023-01-17T14:37:39.867Z,98569.69
2023-01-17T14:42:46.963Z,98575.22
2023-01-17T14:45:16.517Z,98577.41
2023-01-17T14:47:46.344Z,98568.19
2023-01-17T14:50:23.288Z,98563.06
2023-01-17T14:53:06.174Z,98558.72
2023-01-17T14:55:34.406Z,98566.31
2023-01-17T14:58:02.473Z,98545.53
2023-01-17T15:00:30.938Z,98556.31
2023-01-17T15:03:00.844Z,98553.25
2023-01-17T15:05:31.421Z,98553.81
2023-01-17T15:08:00.081Z,98546.19
2023-01-17T15:10:30.839Z,98554.97
2023-01-17T15:13:00.308Z,98542.78
2023-01-17T15:15:30.054Z,98542.66
2023-01-17T15:18:18.788Z,98529.13
2023-01-17T15:20:53.174Z,98545.41
2023-01-17T15:23:22.365Z,98544.16
2023-01-17T15:25:51.748Z,98533.34
2023-01-17T15:28:20.445Z,98550.19
2023-01-17T15:31:15.736Z,98549.28
2023-01-17T15:33:45.525Z,98550.06
2023-01-17T15:36:24.160Z,98543.03
2023-01-17T15:38:55.891Z,98558.94
2023-01-17T15:41:25.534Z,98560.78
2023-01-17T15:43:57.744Z,98547.91
2023-01-17T15:46:40.689Z,98567.72
2023-01-17T15:49:09.425Z,98554.72
2023-01-17T15:51:41.768Z,98561.34
2023-01-17T15:54:44.506Z,98546.00
2023-01-17T15:57:30.294Z,98545.19
2023-01-17T16:00:02.527Z,98555.44
2023-01-17T16:02:35.566Z,98546.66
2023-01-17T16:05:04.605Z,98542.78
2023-01-17T16:07:35.621Z,98544.06
2023-01-17T16:10:07.855Z,98558.25
2023-01-17T16:12:36.110Z,98551.47
2023-01-17T16:15:12.417Z,98540.75
2023-01-17T16:17:41.621Z,98552.94
2023-01-17T16:20:16.216Z,98559.75
2023-01-17T16:22:45.885Z,98546.66
2023-01-17T16:25:15.421Z,98538.59
2023-01-17T16:27:44.114Z,98545.66
2023-01-17T16:30:15.331Z,98551.34
2023-01-17T16:32:43.443Z,98555.66
2023-01-17T16:35:21.069Z,98544.72
2023-01-17T16:37:51.841Z,98543.59
2023-01-17T16:40:20.442Z,98548.16
2023-01-17T16:42:48.508Z,98563.88
2023-01-17T16:45:17.338Z,98547.59
2023-01-17T16:47:46.216Z,98546.00
2023-01-17T16:50:15.746Z,98563.28
2023-01-17T16:52:44.141Z,98553.06
2023-01-17T16:55:14.878Z,98556.59
2023-01-17T16:57:43.253Z,98552.81
2023-01-17T17:00:13.413Z,98551.22
2023-01-17T17:02:41.699Z,98520.94
2023-01-17T17:05:10.837Z,98535.84
2023-01-17T17:07:44.304Z,98541.06
2023-01-17T17:10:16.981Z,98535.94
2023-01-17T17:12:45.355Z,98534.34
2023-01-17T17:15:13.577Z,98522.03
2023-01-17T17:17:42.469Z,98521.81
2023-01-17T17:23:12.933Z,98541.13
2023-01-17T17:25:42.403Z,98540.66
2023-01-17T17:28:11.635Z,98554.66
2023-01-17T17:30:39.605Z,98543.84
2023-01-17T17:33:08.013Z,98554.75
2023-01-17T17:35:36.267Z,98552.13
2023-01-17T17:38:05.866Z,98544.53
2023-01-17T17:40:35.431Z,98564.78
2023-01-17T17:43:08.328Z,98539.28
2023-01-17T17:45:36.400Z,98567.47
2023-01-17T17:48:04.923Z,98564.19
2023-01-17T17:50:35.419Z,98564.63
2023-01-17T17:53:03.404Z,98562.16
2023-01-17T17:55:31.459Z,98549.66
2023-01-17T17:57:59.559Z,98549.66
2023-01-17T18:00:28.956Z,98554.63
2023-01-17T18:02:57.079Z,98550.19
2023-01-17T18:05:25.304Z,98549.97
2023-01-17T18:07:53.632Z,98555.56
2023-01-17T18:10:21.918Z,98565.78
2023-01-17T18:12:50.290Z,98563.31
2023-01-17T18:15:18.706Z,98569.66
2023-01-17T18:17:48.956Z,98562.16
2023-01-17T18:20:17.590Z,98563.41
2023-01-17T18:22:46.102Z,98559.09
2023-01-17T18:25:14.319Z,98567.38
2023-01-17T18:27:49.600Z,98568.19
2023-01-17T18:30:18.111Z,98576.84
2023-01-17T18:32:50.023Z,98565.09
2023-01-17T18:35:18.319Z,98572.19
2023-01-17T18:37:46.288Z,98572.53
2023-01-17T18:40:14.559Z,98569.91
2023-01-17T18:42:42.478Z,98562.50
2023-01-17T18:45:10.898Z,98572.63
2023-01-17T18:47:39.044Z,98556.50
2023-01-17T18:50:08.782Z,98561.00
2023-01-17T18:52:38.996Z,98566.81
2023-01-17T18:55:09.263Z,98559.31
2023-01-17T18:57:37.215Z,98523.03
2023-01-17T19:00:07.720Z,98538.47
2023-01-17T19:02:35.614Z,98539.81
2023-01-17T19:05:05.770Z,98536.88
2023-01-17T19:07:35.158Z,98533.91
2023-01-17T19:10:03.366Z,98538.81
2023-01-17T19:12:31.506Z,98532.06
2023-01-17T19:14:59.513Z,98527.94
2023-01-17T19:17:27.508Z,98523.81
2023-01-17T19:19:57.110Z,98524.56
2023-01-17T19:22:25.272Z,98557.88
2023-01-17T19:24:55.181Z,98564.91
2023-01-17T19:27:23.206Z,98565.72
2023-01-17T19:29:51.219Z,98559.00
2023-01-17T19:32:19.569Z,98561.50
2023-01-17T19:34:47.697Z,98557.97
2023-01-17T19:37:15.629Z,98537.69
2023-01-17T19:39:43.619Z,98560.88
2023-01-17T19:42:15.745Z,98557.22
2023-01-17T19:44:43.747Z,98556.72
2023-01-17T19:47:12.305Z,98532.41
2023-01-17T19:49:42.626Z,98549.63
2023-01-17T19:52:10.641Z,98554.69
2023-01-17T19:54:38.663Z,98561.09
2023-01-17T19:57:06.737Z,98545.41
2023-01-17T19:59:36.650Z,98547.00
2023-01-17T20:02:05.758Z,98559.94
2023-01-17T20:04:33.837Z,98561.53
2023-01-17T20:07:02.985Z,98551.84
2023-01-17T20:09:31.185Z,98559.41
2023-01-17T20:11:59.260Z,98564.50
2023-01-17T20:14:27.426Z,98567.19
2023-01-17T20:16:57.285Z,98566.59
2023-01-17T20:19:25.312Z,98558.22
2023-01-17T20:21:54.021Z,98567.91
2023-01-17T20:24:21.992Z,98573.59
2023-01-17T20:26:51.455Z,98565.81
2023-01-17T20:29:19.508Z,98556.72
2023-01-17T20:31:47.735Z,98568.72
2023-01-17T20:34:22.027Z,98566.53
2023-01-17T20:36:50.026Z,98569.13
2023-01-17T20:45:11.187Z,98563.47
2023-01-17T20:47:39.660Z,98563.13
2023-01-17T20:50:10.097Z,98553.78
2023-01-17T20:52:38.728Z,98571.28
2023-01-17T20:55:08.470Z,98563.13
2023-01-17T20:57:36.412Z,98571.97
2023-01-17T21:00:05.996Z,98587.00
2023-01-17T21:02:34.043Z,98569.22
2023-01-17T21:05:03.816Z,98592.97
2023-01-17T21:07:33.133Z,98582.44
2023-01-17T21:10:01.101Z,98587.50
2023-01-17T21:12:29.604Z,98583.25
2023-01-17T21:14:57.887Z,98579.03
2023-01-17T21:17:25.819Z,98566.06
2023-01-17T21:19:53.789Z,98574.91
2023-01-17T21:22:21.802Z,98567.69
2023-01-17T21:24:51.154Z,98569.84
2023-01-17T21:27:19.155Z,98555.16
2023-01-17T21:29:47.542Z,98575.50
2023-01-17T21:32:17.362Z,98569.41
2023-01-17T21:34:45.460Z,98576.78
2023-01-17T21:37:13.504Z,98578.16
2023-01-17T21:39:41.400Z,98576.31
2023-01-17T21:42:10.786Z,98569.25
2023-01-17T21:44:38.952Z,98566.41
2023-01-17T21:47:06.910Z,98565.19
2023-01-17T21:49:34.990Z,98576.06
2023-01-17T21:52:21.305Z,98589.25
2023-01-17T21:55:07.069Z,98593.84
2023-01-17T21:57:54.070Z,98573.75
2023-01-17T22:00:22.763Z,98569.38
2023-01-17T22:02:50.666Z,98561.13
2023-01-17T22:05:19.406Z,98551.09
2023-01-17T22:08:01.191Z,98541.22
2023-01-17T22:10:29.207Z,98546.59
2023-01-17T22:12:59.013Z,98542.91
2023-01-17T22:15:27.099Z,98547.25
2023-01-17T22:17:55.464Z,98531.94
2023-01-17T22:20:23.592Z,98522.94
2023-01-17T22:22:51.665Z,98530.78
2023-01-17T22:25:19.583Z,98533.09
2023-01-17T22:27:47.572Z,98533.91
2023-01-17T22:30:17.411Z,98533.97
2023-01-17T22:32:47.837Z,98529.47
2023-01-17T22:35:15.968Z,98544.13
2023-01-17T22:37:44.637Z,98534.47
2023-01-17T22:40:15.979Z,98524.69
2023-01-17T22:42:44.219Z,98529.31
2023-01-17T22:45:12.537Z,98515.47
2023-01-17T22:47:41.759Z,98513.13
2023-01-17T22:50:12.566Z,98521.63
2023-01-17T22:52:42.224Z,98528.38
2023-01-17T22:55:12.497Z,98507.72
2023-01-17T22:57:41.025Z,98508.66
2023-01-17T23:00:14.918Z,98508.00
2023-01-17T23:02:44.533Z,98507.22
2023-01-17T23:05:12.769Z,98507.41
2023-01-17T23:07:44.341Z,98513.50
2023-01-17T23:10:13.555Z,98509.06
2023-01-17T23:12:41.391Z,98517.50
2023-01-17T23:15:26.697Z,98524.56
2023-01-17T23:18:13.993Z,98531.94
2023-01-17T23:20:42.007Z,98515.13
2023-01-17T23:23:10.023Z,98536.78
2023-01-17T23:25:37.976Z,98529.31
2023-01-17T23:28:20.909Z,98535.56
2023-01-17T23:30:50.291Z,98546.66
2023-01-17T23:33:19.669Z,98541.00
2023-01-17T23:35:47.930Z,98550.66
2023-01-17T23:38:29.965Z,98552.69
2023-01-17T23:41:18.932Z,98530.91
2023-01-17T23:43:50.984Z,98527.78
2023-01-17T23:46:19.101Z,98538.75
2023-01-17T23:48:49.547Z,98540.34
2023-01-17T23:51:17.555Z,98536.28
2023-01-17T23:53:45.503Z,98535.34
2023-01-17T23:56:15.937Z,98528.47
2023-01-17T23:58:44.043Z,98524.25
